sensor_id;sensor_type;location;lat;lon;timestamp;P1;durP1;ratioP1;P2;durP2;ratioP2
31130;SDS011;20292;50.944;4.034;2022-09-09T00:04:38;11.43;;;2.75;;
31130;SDS011;20292;50.944;4.034;2022-09-09T00:09:47;6.47;;;2.20;;
31130;SDS011;20292;50.944;4.034;2022-09-09T00:15:07;9.63;;;2.60;;
31130;SDS011;20292;50.944;4.034;2022-09-09T00:20:46;12.68;;;2.70;;
31130;SDS011;20292;50.944;4.034;2022-09-09T00:26:34;6.82;;;2.10;;
31130;SDS011;20292;50.944;4.034;2022-09-09T00:29:05;8.43;;;2.35;;
31130;SDS011;20292;50.944;4.034;2022-09-09T00:31:59;8.07;;;2.00;;
31130;SDS011;20292;50.944;4.034;2022-09-09T00:34:35;7.05;;;2.13;;
31130;SDS011;20292;50.944;4.034;2022-09-09T00:37:04;8.73;;;1.98;;
31130;SDS011;20292;50.944;4.034;2022-09-09T00:39:42;5.05;;;2.03;;
31130;SDS011;20292;50.944;4.034;2022-09-09T00:42:26;5.72;;;1.83;;
31130;SDS011;20292;50.944;4.034;2022-09-09T00:47:50;9.27;;;2.03;;
31130;SDS011;20292;50.944;4.034;2022-09-09T00:53:26;5.97;;;1.70;;
31130;SDS011;20292;50.944;4.034;2022-09-09T00:58:36;3.17;;;1.65;;
31130;SDS011;20292;50.944;4.034;2022-09-09T01:01:07;6.22;;;1.67;;
31130;SDS011;20292;50.944;4.034;2022-09-09T01:14:44;8.05;;;1.40;;
31130;SDS011;20292;50.944;4.034;2022-09-09T01:17:20;7.93;;;1.40;;
31130;SDS011;20292;50.944;4.034;2022-09-09T01:28:08;7.65;;;1.73;;
31130;SDS011;20292;50.944;4.034;2022-09-09T01:30:39;5.97;;;1.52;;
31130;SDS011;20292;50.944;4.034;2022-09-09T01:33:07;5.70;;;1.67;;
31130;SDS011;20292;50.944;4.034;2022-09-09T01:38:15;8.43;;;1.65;;
31130;SDS011;20292;50.944;4.034;2022-09-09T01:40:42;9.93;;;2.03;;
31130;SDS011;20292;50.944;4.034;2022-09-09T01:43:08;9.13;;;1.98;;
31130;SDS011;20292;50.944;4.034;2022-09-09T01:45:34;7.53;;;1.60;;
31130;SDS011;20292;50.944;4.034;2022-09-09T01:48:00;6.32;;;1.42;;
31130;SDS011;20292;50.944;4.034;2022-09-09T01:50:27;6.88;;;2.10;;
31130;SDS011;20292;50.944;4.034;2022-09-09T01:52:54;6.15;;;1.98;;
31130;SDS011;20292;50.944;4.034;2022-09-09T01:55:42;4.45;;;1.67;;
31130;SDS011;20292;50.944;4.034;2022-09-09T01:58:38;9.77;;;2.10;;
31130;SDS011;20292;50.944;4.034;2022-09-09T02:03:56;10.05;;;2.05;;
31130;SDS011;20292;50.944;4.034;2022-09-09T02:08:56;9.32;;;1.95;;
31130;SDS011;20292;50.944;4.034;2022-09-09T02:11:25;7.95;;;1.80;;
31130;SDS011;20292;50.944;4.034;2022-09-09T02:13:53;16.00;;;2.10;;
31130;SDS011;20292;50.944;4.034;2022-09-09T02:16:37;8.18;;;2.10;;
31130;SDS011;20292;50.944;4.034;2022-09-09T02:19:17;5.85;;;1.58;;
31130;SDS011;20292;50.944;4.034;2022-09-09T02:21:48;8.40;;;2.42;;
31130;SDS011;20292;50.944;4.034;2022-09-09T02:24:15;14.48;;;2.03;;
31130;SDS011;20292;50.944;4.034;2022-09-09T02:26:41;11.13;;;1.90;;
31130;SDS011;20292;50.944;4.034;2022-09-09T02:29:13;8.57;;;1.70;;
31130;SDS011;20292;50.944;4.034;2022-09-09T02:31:43;6.38;;;2.00;;
31130;SDS011;20292;50.944;4.034;2022-09-09T02:34:11;8.73;;;2.10;;
31130;SDS011;20292;50.944;4.034;2022-09-09T02:36:38;7.63;;;2.08;;
31130;SDS011;20292;50.944;4.034;2022-09-09T02:39:08;11.05;;;2.17;;
31130;SDS011;20292;50.944;4.034;2022-09-09T02:41:36;10.95;;;2.00;;
31130;SDS011;20292;50.944;4.034;2022-09-09T02:44:14;6.82;;;1.80;;
31130;SDS011;20292;50.944;4.034;2022-09-09T02:58:14;7.53;;;2.03;;
31130;SDS011;20292;50.944;4.034;2022-09-09T03:00:43;9.52;;;2.17;;
31130;SDS011;20292;50.944;4.034;2022-09-09T03:03:11;10.18;;;2.10;;
31130;SDS011;20292;50.944;4.034;2022-09-09T03:05:37;9.70;;;2.20;;
31130;SDS011;20292;50.944;4.034;2022-09-09T03:08:03;11.35;;;2.33;;
31130;SDS011;20292;50.944;4.034;2022-09-09T03:10:30;13.00;;;2.75;;
31130;SDS011;20292;50.944;4.034;2022-09-09T03:12:56;15.45;;;2.20;;
31130;SDS011;20292;50.944;4.034;2022-09-09T03:15:22;13.77;;;2.40;;
31130;SDS011;20292;50.944;4.034;2022-09-09T03:17:47;9.10;;;2.20;;
31130;SDS011;20292;50.944;4.034;2022-09-09T03:20:13;11.05;;;2.65;;
31130;SDS011;20292;50.944;4.034;2022-09-09T03:22:39;15.07;;;2.50;;
31130;SDS011;20292;50.944;4.034;2022-09-09T03:25:05;16.67;;;2.45;;
31130;SDS011;20292;50.944;4.034;2022-09-09T03:27:31;12.00;;;2.10;;
31130;SDS011;20292;50.944;4.034;2022-09-09T03:29:57;12.73;;;2.50;;
31130;SDS011;20292;50.944;4.034;2022-09-09T03:32:23;10.20;;;2.30;;
31130;SDS011;20292;50.944;4.034;2022-09-09T03:34:50;15.63;;;2.55;;
31130;SDS011;20292;50.944;4.034;2022-09-09T03:37:17;12.02;;;2.20;;
31130;SDS011;20292;50.944;4.034;2022-09-09T03:39:43;11.23;;;2.70;;
31130;SDS011;20292;50.944;4.034;2022-09-09T03:42:11;8.68;;;2.15;;
31130;SDS011;20292;50.944;4.034;2022-09-09T03:44:39;9.07;;;2.47;;
31130;SDS011;20292;50.944;4.034;2022-09-09T03:47:04;12.38;;;2.08;;
31130;SDS011;20292;50.944;4.034;2022-09-09T03:49:31;11.43;;;2.20;;
31130;SDS011;20292;50.944;4.034;2022-09-09T03:51:56;14.35;;;3.28;;
31130;SDS011;20292;50.944;4.034;2022-09-09T03:54:24;8.88;;;2.25;;
31130;SDS011;20292;50.944;4.034;2022-09-09T03:56:50;9.73;;;2.42;;
31130;SDS011;20292;50.944;4.034;2022-09-09T03:59:15;10.38;;;2.25;;
31130;SDS011;20292;50.944;4.034;2022-09-09T04:01:41;13.07;;;3.00;;
31130;SDS011;20292;50.944;4.034;2022-09-09T04:04:07;13.73;;;2.88;;
31130;SDS011;20292;50.944;4.034;2022-09-09T04:06:33;12.25;;;2.38;;
31130;SDS011;20292;50.944;4.034;2022-09-09T04:08:59;9.55;;;2.60;;
31130;SDS011;20292;50.944;4.034;2022-09-09T04:11:27;12.50;;;2.42;;
31130;SDS011;20292;50.944;4.034;2022-09-09T04:13:53;15.75;;;2.47;;
31130;SDS011;20292;50.944;4.034;2022-09-09T04:16:18;13.13;;;3.85;;
31130;SDS011;20292;50.944;4.034;2022-09-09T04:18:45;10.45;;;2.60;;
31130;SDS011;20292;50.944;4.034;2022-09-09T04:21:11;10.77;;;2.60;;
31130;SDS011;20292;50.944;4.034;2022-09-09T04:23:37;11.02;;;2.78;;
31130;SDS011;20292;50.944;4.034;2022-09-09T04:26:03;12.90;;;2.80;;
31130;SDS011;20292;50.944;4.034;2022-09-09T04:28:31;14.77;;;2.58;;
31130;SDS011;20292;50.944;4.034;2022-09-09T04:31:03;14.35;;;2.75;;
31130;SDS011;20292;50.944;4.034;2022-09-09T04:33:39;13.68;;;2.50;;
31130;SDS011;20292;50.944;4.034;2022-09-09T04:36:05;16.13;;;2.75;;
31130;SDS011;20292;50.944;4.034;2022-09-09T04:38:31;16.77;;;2.60;;
31130;SDS011;20292;50.944;4.034;2022-09-09T04:40:56;12.43;;;2.75;;
31130;SDS011;20292;50.944;4.034;2022-09-09T04:43:22;18.95;;;3.38;;
31130;SDS011;20292;50.944;4.034;2022-09-09T04:45:49;14.15;;;2.38;;
31130;SDS011;20292;50.944;4.034;2022-09-09T04:48:16;19.70;;;2.90;;
31130;SDS011;20292;50.944;4.034;2022-09-09T04:50:42;11.30;;;2.10;;
31130;SDS011;20292;50.944;4.034;2022-09-09T04:53:08;13.73;;;2.65;;
31130;SDS011;20292;50.944;4.034;2022-09-09T04:55:34;16.25;;;3.08;;
31130;SDS011;20292;50.944;4.034;2022-09-09T04:58:06;16.13;;;2.47;;
31130;SDS011;20292;50.944;4.034;2022-09-09T05:00:33;16.25;;;2.97;;
31130;SDS011;20292;50.944;4.034;2022-09-09T05:03:03;18.45;;;2.88;;
31130;SDS011;20292;50.944;4.034;2022-09-09T05:05:30;10.68;;;2.60;;
31130;SDS011;20292;50.944;4.034;2022-09-09T05:08:03;18.65;;;3.05;;
31130;SDS011;20292;50.944;4.034;2022-09-09T05:10:30;11.32;;;2.65;;
31130;SDS011;20292;50.944;4.034;2022-09-09T05:12:57;16.25;;;2.60;;
31130;SDS011;20292;50.944;4.034;2022-09-09T05:15:23;16.35;;;2.60;;
31130;SDS011;20292;50.944;4.034;2022-09-09T05:17:48;12.25;;;2.47;;
31130;SDS011;20292;50.944;4.034;2022-09-09T05:20:14;13.75;;;2.47;;
31130;SDS011;20292;50.944;4.034;2022-09-09T05:22:40;16.65;;;2.58;;
31130;SDS011;20292;50.944;4.034;2022-09-09T05:25:06;18.83;;;2.90;;
31130;SDS011;20292;50.944;4.034;2022-09-09T05:27:35;15.00;;;2.72;;
31130;SDS011;20292;50.944;4.034;2022-09-09T05:30:01;13.60;;;2.83;;
31130;SDS011;20292;50.944;4.034;2022-09-09T05:32:27;12.68;;;2.05;;
31130;SDS011;20292;50.944;4.034;2022-09-09T05:34:57;15.60;;;2.60;;
31130;SDS011;20292;50.944;4.034;2022-09-09T05:37:23;14.15;;;2.50;;
31130;SDS011;20292;50.944;4.034;2022-09-09T05:39:48;16.20;;;2.67;;
31130;SDS011;20292;50.944;4.034;2022-09-09T05:42:14;13.68;;;2.30;;
31130;SDS011;20292;50.944;4.034;2022-09-09T05:44:40;13.93;;;2.97;;
31130;SDS011;20292;50.944;4.034;2022-09-09T05:47:07;13.40;;;2.42;;
31130;SDS011;20292;50.944;4.034;2022-09-09T05:49:34;13.55;;;2.30;;
31130;SDS011;20292;50.944;4.034;2022-09-09T05:52:00;15.23;;;2.45;;
31130;SDS011;20292;50.944;4.034;2022-09-09T05:54:25;16.10;;;2.60;;
31130;SDS011;20292;50.944;4.034;2022-09-09T05:56:51;15.35;;;2.75;;
31130;SDS011;20292;50.944;4.034;2022-09-09T05:59:18;14.73;;;2.60;;
31130;SDS011;20292;50.944;4.034;2022-09-09T06:01:44;11.77;;;2.47;;
31130;SDS011;20292;50.944;4.034;2022-09-09T06:04:10;17.95;;;2.88;;
31130;SDS011;20292;50.944;4.034;2022-09-09T06:06:36;16.65;;;2.92;;
31130;SDS011;20292;50.944;4.034;2022-09-09T06:09:05;13.60;;;2.17;;
31130;SDS011;20292;50.944;4.034;2022-09-09T06:11:34;14.60;;;2.95;;
31130;SDS011;20292;50.944;4.034;2022-09-09T06:14:01;15.25;;;2.95;;
31130;SDS011;20292;50.944;4.034;2022-09-09T06:16:28;15.77;;;2.70;;
31130;SDS011;20292;50.944;4.034;2022-09-09T06:18:55;12.65;;;2.50;;
31130;SDS011;20292;50.944;4.034;2022-09-09T06:21:23;13.20;;;2.45;;
31130;SDS011;20292;50.944;4.034;2022-09-09T06:23:50;16.90;;;3.08;;
31130;SDS011;20292;50.944;4.034;2022-09-09T06:28:44;10.52;;;2.47;;
31130;SDS011;20292;50.944;4.034;2022-09-09T06:31:11;13.68;;;2.28;;
31130;SDS011;20292;50.944;4.034;2022-09-09T06:33:38;13.45;;;2.28;;
31130;SDS011;20292;50.944;4.034;2022-09-09T06:36:13;14.02;;;2.55;;
31130;SDS011;20292;50.944;4.034;2022-09-09T06:38:40;10.75;;;2.42;;
31130;SDS011;20292;50.944;4.034;2022-09-09T06:41:07;12.30;;;2.63;;
31130;SDS011;20292;50.944;4.034;2022-09-09T06:43:34;11.30;;;2.17;;
31130;SDS011;20292;50.944;4.034;2022-09-09T06:46:08;9.75;;;2.28;;
31130;SDS011;20292;50.944;4.034;2022-09-09T06:48:35;14.35;;;2.72;;
31130;SDS011;20292;50.944;4.034;2022-09-09T06:51:02;11.15;;;2.10;;
31130;SDS011;20292;50.944;4.034;2022-09-09T06:53:35;14.13;;;2.40;;
31130;SDS011;20292;50.944;4.034;2022-09-09T06:56:17;15.55;;;2.45;;
31130;SDS011;20292;50.944;4.034;2022-09-09T06:58:44;10.65;;;2.28;;
31130;SDS011;20292;50.944;4.034;2022-09-09T07:01:11;14.23;;;2.50;;
31130;SDS011;20292;50.944;4.034;2022-09-09T07:03:39;10.75;;;2.13;;
31130;SDS011;20292;50.944;4.034;2022-09-09T07:06:05;12.45;;;2.35;;
31130;SDS011;20292;50.944;4.034;2022-09-09T07:08:32;14.23;;;2.70;;
31130;SDS011;20292;50.944;4.034;2022-09-09T07:11:05;17.55;;;2.47;;
31130;SDS011;20292;50.944;4.034;2022-09-09T07:13:31;12.80;;;2.40;;
31130;SDS011;20292;50.944;4.034;2022-09-09T07:16:08;11.43;;;2.30;;
31130;SDS011;20292;50.944;4.034;2022-09-09T07:18:35;16.02;;;2.65;;
31130;SDS011;20292;50.944;4.034;2022-09-09T07:21:01;10.27;;;2.17;;
31130;SDS011;20292;50.944;4.034;2022-09-09T07:23:28;13.05;;;2.35;;
31130;SDS011;20292;50.944;4.034;2022-09-09T07:25:55;15.38;;;2.58;;
31130;SDS011;20292;50.944;4.034;2022-09-09T07:28:21;8.50;;;2.30;;
31130;SDS011;20292;50.944;4.034;2022-09-09T07:30:57;9.68;;;2.63;;
31130;SDS011;20292;50.944;4.034;2022-09-09T07:33:27;13.10;;;2.50;;
31130;SDS011;20292;50.944;4.034;2022-09-09T07:36:01;14.30;;;2.40;;
31130;SDS011;20292;50.944;4.034;2022-09-09T07:38:28;14.18;;;2.35;;
31130;SDS011;20292;50.944;4.034;2022-09-09T07:41:01;13.90;;;2.60;;
31130;SDS011;20292;50.944;4.034;2022-09-09T07:43:28;14.60;;;2.65;;
31130;SDS011;20292;50.944;4.034;2022-09-09T07:45:57;8.90;;;2.65;;
31130;SDS011;20292;50.944;4.034;2022-09-09T07:48:23;17.33;;;2.28;;
31130;SDS011;20292;50.944;4.034;2022-09-09T07:50:49;10.65;;;1.95;;
31130;SDS011;20292;50.944;4.034;2022-09-09T07:53:16;13.13;;;2.53;;
31130;SDS011;20292;50.944;4.034;2022-09-09T07:55:42;13.30;;;2.38;;
31130;SDS011;20292;50.944;4.034;2022-09-09T07:58:08;13.00;;;2.30;;
31130;SDS011;20292;50.944;4.034;2022-09-09T08:00:33;11.02;;;2.33;;
31130;SDS011;20292;50.944;4.034;2022-09-09T08:02:59;14.48;;;2.33;;
31130;SDS011;20292;50.944;4.034;2022-09-09T08:05:26;9.18;;;1.92;;
31130;SDS011;20292;50.944;4.034;2022-09-09T08:07:53;10.90;;;2.60;;
31130;SDS011;20292;50.944;4.034;2022-09-09T08:10:18;9.85;;;1.98;;
31130;SDS011;20292;50.944;4.034;2022-09-09T08:12:44;9.38;;;1.95;;
31130;SDS011;20292;50.944;4.034;2022-09-09T08:15:10;10.85;;;2.65;;
31130;SDS011;20292;50.944;4.034;2022-09-09T08:17:37;11.77;;;1.88;;
31130;SDS011;20292;50.944;4.034;2022-09-09T08:20:03;16.52;;;2.42;;
31130;SDS011;20292;50.944;4.034;2022-09-09T08:22:29;12.98;;;2.90;;
31130;SDS011;20292;50.944;4.034;2022-09-09T08:24:56;18.05;;;2.45;;
31130;SDS011;20292;50.944;4.034;2022-09-09T08:27:22;8.93;;;2.00;;
31130;SDS011;20292;50.944;4.034;2022-09-09T08:29:47;9.15;;;2.40;;
31130;SDS011;20292;50.944;4.034;2022-09-09T08:32:13;9.88;;;1.70;;
31130;SDS011;20292;50.944;4.034;2022-09-09T08:34:39;12.50;;;2.53;;
31130;SDS011;20292;50.944;4.034;2022-09-09T08:37:05;9.85;;;2.28;;
31130;SDS011;20292;50.944;4.034;2022-09-09T08:39:30;11.05;;;2.33;;
31130;SDS011;20292;50.944;4.034;2022-09-09T08:42:09;12.10;;;2.10;;
31130;SDS011;20292;50.944;4.034;2022-09-09T08:50:38;7.13;;;2.03;;
31130;SDS011;20292;50.944;4.034;2022-09-09T08:58:20;13.43;;;2.30;;
31130;SDS011;20292;50.944;4.034;2022-09-09T09:09:25;11.23;;;2.07;;
31130;SDS011;20292;50.944;4.034;2022-09-09T09:11:53;10.65;;;1.90;;
31130;SDS011;20292;50.944;4.034;2022-09-09T09:14:26;15.75;;;2.28;;
31130;SDS011;20292;50.944;4.034;2022-09-09T09:16:59;10.23;;;2.20;;
31130;SDS011;20292;50.944;4.034;2022-09-09T09:19:29;10.30;;;2.15;;
31130;SDS011;20292;50.944;4.034;2022-09-09T09:22:05;8.57;;;2.13;;
31130;SDS011;20292;50.944;4.034;2022-09-09T09:24:45;11.48;;;2.10;;
31130;SDS011;20292;50.944;4.034;2022-09-09T09:30:21;10.15;;;2.47;;
31130;SDS011;20292;50.944;4.034;2022-09-09T09:33:02;8.93;;;1.92;;
31130;SDS011;20292;50.944;4.034;2022-09-09T09:35:33;11.32;;;2.60;;
31130;SDS011;20292;50.944;4.034;2022-09-09T09:37:59;11.48;;;2.28;;
31130;SDS011;20292;50.944;4.034;2022-09-09T09:40:26;11.80;;;2.03;;
31130;SDS011;20292;50.944;4.034;2022-09-09T09:42:58;13.82;;;2.30;;
31130;SDS011;20292;50.944;4.034;2022-09-09T09:45:33;14.48;;;2.55;;
31130;SDS011;20292;50.944;4.034;2022-09-09T09:48:06;13.05;;;2.53;;
31130;SDS011;20292;50.944;4.034;2022-09-09T09:50:35;9.43;;;2.00;;
31130;SDS011;20292;50.944;4.034;2022-09-09T09:53:21;8.88;;;2.05;;
31130;SDS011;20292;50.944;4.034;2022-09-09T09:55:53;10.38;;;2.47;;
31130;SDS011;20292;50.944;4.034;2022-09-09T09:58:22;10.93;;;2.10;;
31130;SDS011;20292;50.944;4.034;2022-09-09T10:00:50;10.55;;;2.22;;
31130;SDS011;20292;50.944;4.034;2022-09-09T10:03:28;8.45;;;2.03;;
31130;SDS011;20292;50.944;4.034;2022-09-09T10:05:55;10.82;;;2.50;;
31130;SDS011;20292;50.944;4.034;2022-09-09T10:08:26;7.50;;;2.05;;
31130;SDS011;20292;50.944;4.034;2022-09-09T10:11:05;5.78;;;1.67;;
31130;SDS011;20292;50.944;4.034;2022-09-09T10:26:53;7.63;;;1.73;;
31130;SDS011;20292;50.944;4.034;2022-09-09T10:42:46;7.10;;;1.80;;
31130;SDS011;20292;50.944;4.034;2022-09-09T10:45:18;10.85;;;1.80;;
31130;SDS011;20292;50.944;4.034;2022-09-09T10:56:42;4.82;;;1.58;;
31130;SDS011;20292;50.944;4.034;2022-09-09T10:59:20;5.85;;;1.60;;
31130;SDS011;20292;50.944;4.034;2022-09-09T11:04:32;8.25;;;1.48;;
31130;SDS011;20292;50.944;4.034;2022-09-09T11:07:07;9.38;;;1.77;;
31130;SDS011;20292;50.944;4.034;2022-09-09T11:09:43;3.92;;;1.85;;
31130;SDS011;20292;50.944;4.034;2022-09-09T11:12:18;9.02;;;1.52;;
31130;SDS011;20292;50.944;4.034;2022-09-09T11:14:49;5.85;;;1.67;;
31130;SDS011;20292;50.944;4.034;2022-09-09T11:17:26;7.82;;;1.58;;
31130;SDS011;20292;50.944;4.034;2022-09-09T11:20:14;6.93;;;1.50;;
31130;SDS011;20292;50.944;4.034;2022-09-09T11:22:43;4.47;;;1.40;;
31130;SDS011;20292;50.944;4.034;2022-09-09T11:33:31;5.65;;;1.48;;
31130;SDS011;20292;50.944;4.034;2022-09-09T11:36:38;3.63;;;1.50;;
31130;SDS011;20292;50.944;4.034;2022-09-09T11:41:49;6.18;;;1.35;;
31130;SDS011;20292;50.944;4.034;2022-09-09T11:44:19;4.53;;;1.25;;
31130;SDS011;20292;50.944;4.034;2022-09-09T11:46:53;6.10;;;1.77;;
31130;SDS011;20292;50.944;4.034;2022-09-09T11:49:29;11.75;;;2.05;;
31130;SDS011;20292;50.944;4.034;2022-09-09T11:52:13;4.75;;;1.58;;
31130;SDS011;20292;50.944;4.034;2022-09-09T11:58:01;7.40;;;2.05;;
31130;SDS011;20292;50.944;4.034;2022-09-09T12:06:13;6.05;;;1.75;;
31130;SDS011;20292;50.944;4.034;2022-09-09T12:08:46;3.65;;;1.55;;
31130;SDS011;20292;50.944;4.034;2022-09-09T12:11:26;7.63;;;1.67;;
31130;SDS011;20292;50.944;4.034;2022-09-09T12:13:53;6.90;;;1.50;;
31130;SDS011;20292;50.944;4.034;2022-09-09T12:16:34;9.40;;;1.92;;
31130;SDS011;20292;50.944;4.034;2022-09-09T12:24:19;6.65;;;1.85;;
31130;SDS011;20292;50.944;4.034;2022-09-09T12:30:01;5.72;;;1.52;;
31130;SDS011;20292;50.944;4.034;2022-09-09T12:35:03;9.10;;;1.70;;
31130;SDS011;20292;50.944;4.034;2022-09-09T12:37:36;8.32;;;1.75;;
31130;SDS011;20292;50.944;4.034;2022-09-09T12:40:06;5.35;;;1.40;;
31130;SDS011;20292;50.944;4.034;2022-09-09T12:42:32;5.50;;;1.85;;
31130;SDS011;20292;50.944;4.034;2022-09-09T12:45:01;9.77;;;2.10;;
31130;SDS011;20292;50.944;4.034;2022-09-09T12:47:44;8.35;;;1.73;;
31130;SDS011;20292;50.944;4.034;2022-09-09T12:50:24;9.27;;;1.50;;
31130;SDS011;20292;50.944;4.034;2022-09-09T12:52:53;5.25;;;1.50;;
31130;SDS011;20292;50.944;4.034;2022-09-09T12:55:23;3.33;;;1.00;;
31130;SDS011;20292;50.944;4.034;2022-09-09T12:57:52;5.97;;;1.27;;
31130;SDS011;20292;50.944;4.034;2022-09-09T13:00:19;6.22;;;1.48;;
31130;SDS011;20292;50.944;4.034;2022-09-09T13:02:50;7.03;;;1.55;;
31130;SDS011;20292;50.944;4.034;2022-09-09T13:05:19;4.93;;;1.40;;
31130;SDS011;20292;50.944;4.034;2022-09-09T13:07:49;5.70;;;1.67;;
31130;SDS011;20292;50.944;4.034;2022-09-09T13:10:26;6.30;;;1.58;;
31130;SDS011;20292;50.944;4.034;2022-09-09T13:12:54;5.30;;;1.42;;
31130;SDS011;20292;50.944;4.034;2022-09-09T13:15:21;6.13;;;1.58;;
31130;SDS011;20292;50.944;4.034;2022-09-09T13:17:53;7.05;;;1.83;;
31130;SDS011;20292;50.944;4.034;2022-09-09T13:20:25;7.78;;;1.55;;
31130;SDS011;20292;50.944;4.034;2022-09-09T13:22:52;11.93;;;2.20;;
31130;SDS011;20292;50.944;4.034;2022-09-09T13:25:28;4.80;;;1.50;;
31130;SDS011;20292;50.944;4.034;2022-09-09T13:28:04;6.75;;;1.83;;
31130;SDS011;20292;50.944;4.034;2022-09-09T13:30:54;3.50;;;1.10;;
31130;SDS011;20292;50.944;4.034;2022-09-09T13:33:37;6.35;;;1.40;;
31130;SDS011;20292;50.944;4.034;2022-09-09T13:36:07;5.15;;;1.63;;
31130;SDS011;20292;50.944;4.034;2022-09-09T13:38:36;5.22;;;1.55;;
31130;SDS011;20292;50.944;4.034;2022-09-09T13:41:06;5.43;;;1.38;;
31130;SDS011;20292;50.944;4.034;2022-09-09T13:43:43;3.75;;;1.20;;
31130;SDS011;20292;50.944;4.034;2022-09-09T13:49:02;5.38;;;1.20;;
31130;SDS011;20292;50.944;4.034;2022-09-09T13:54:12;5.75;;;1.50;;
31130;SDS011;20292;50.944;4.034;2022-09-09T13:56:40;4.18;;;1.50;;
31130;SDS011;20292;50.944;4.034;2022-09-09T13:59:09;7.50;;;1.50;;
31130;SDS011;20292;50.944;4.034;2022-09-09T14:01:40;3.25;;;1.40;;
31130;SDS011;20292;50.944;4.034;2022-09-09T14:04:06;3.63;;;1.48;;
31130;SDS011;20292;50.944;4.034;2022-09-09T14:06:32;4.80;;;1.23;;
31130;SDS011;20292;50.944;4.034;2022-09-09T14:09:03;6.82;;;1.88;;
31130;SDS011;20292;50.944;4.034;2022-09-09T14:11:29;4.88;;;1.50;;
31130;SDS011;20292;50.944;4.034;2022-09-09T14:13:55;4.97;;;1.58;;
31130;SDS011;20292;50.944;4.034;2022-09-09T14:16:21;5.25;;;1.60;;
31130;SDS011;20292;50.944;4.034;2022-09-09T14:18:46;4.18;;;1.40;;
31130;SDS011;20292;50.944;4.034;2022-09-09T14:21:12;4.00;;;1.30;;
31130;SDS011;20292;50.944;4.034;2022-09-09T14:23:40;8.43;;;1.60;;
31130;SDS011;20292;50.944;4.034;2022-09-09T14:26:06;9.63;;;3.47;;
31130;SDS011;20292;50.944;4.034;2022-09-09T14:28:32;3.67;;;1.30;;
31130;SDS011;20292;50.944;4.034;2022-09-09T14:31:00;4.63;;;1.45;;
31130;SDS011;20292;50.944;4.034;2022-09-09T14:33:26;5.05;;;1.67;;
31130;SDS011;20292;50.944;4.034;2022-09-09T14:35:56;3.28;;;1.38;;
31130;SDS011;20292;50.944;4.034;2022-09-09T14:38:29;6.55;;;1.30;;
31130;SDS011;20292;50.944;4.034;2022-09-09T14:40:58;3.25;;;1.27;;
31130;SDS011;20292;50.944;4.034;2022-09-09T14:43:24;4.28;;;1.38;;
31130;SDS011;20292;50.944;4.034;2022-09-09T14:45:52;5.82;;;1.50;;
31130;SDS011;20292;50.944;4.034;2022-09-09T14:48:17;5.50;;;1.70;;
31130;SDS011;20292;50.944;4.034;2022-09-09T14:50:43;6.47;;;1.60;;
31130;SDS011;20292;50.944;4.034;2022-09-09T14:53:08;5.38;;;1.73;;
31130;SDS011;20292;50.944;4.034;2022-09-09T14:55:35;8.50;;;2.28;;
31130;SDS011;20292;50.944;4.034;2022-09-09T14:58:01;4.25;;;1.65;;
31130;SDS011;20292;50.944;4.034;2022-09-09T15:00:28;6.75;;;1.60;;
31130;SDS011;20292;50.944;4.034;2022-09-09T15:02:53;6.78;;;2.03;;
31130;SDS011;20292;50.944;4.034;2022-09-09T15:05:20;6.95;;;1.90;;
31130;SDS011;20292;50.944;4.034;2022-09-09T15:07:45;6.13;;;1.90;;
31130;SDS011;20292;50.944;4.034;2022-09-09T15:10:12;4.68;;;1.75;;
31130;SDS011;20292;50.944;4.034;2022-09-09T15:12:37;5.05;;;1.38;;
31130;SDS011;20292;50.944;4.034;2022-09-09T15:15:03;5.32;;;1.63;;
31130;SDS011;20292;50.944;4.034;2022-09-09T15:17:29;3.58;;;1.35;;
31130;SDS011;20292;50.944;4.034;2022-09-09T15:19:55;13.23;;;3.20;;
31130;SDS011;20292;50.944;4.034;2022-09-09T15:22:21;5.75;;;1.63;;
31130;SDS011;20292;50.944;4.034;2022-09-09T15:24:47;9.23;;;1.85;;
31130;SDS011;20292;50.944;4.034;2022-09-09T15:27:12;6.63;;;2.38;;
31130;SDS011;20292;50.944;4.034;2022-09-09T15:29:39;8.40;;;2.30;;
31130;SDS011;20292;50.944;4.034;2022-09-09T15:32:06;10.88;;;2.80;;
31130;SDS011;20292;50.944;4.034;2022-09-09T15:34:32;9.38;;;2.70;;
31130;SDS011;20292;50.944;4.034;2022-09-09T15:36:57;5.70;;;2.00;;
31130;SDS011;20292;50.944;4.034;2022-09-09T15:39:25;7.97;;;2.40;;
31130;SDS011;20292;50.944;4.034;2022-09-09T15:41:51;6.72;;;2.38;;
31130;SDS011;20292;50.944;4.034;2022-09-09T15:44:16;7.68;;;2.65;;
31130;SDS011;20292;50.944;4.034;2022-09-09T15:46:50;6.75;;;2.13;;
31130;SDS011;20292;50.944;4.034;2022-09-09T15:49:19;14.35;;;2.50;;
31130;SDS011;20292;50.944;4.034;2022-09-09T15:51:56;6.88;;;1.92;;
31130;SDS011;20292;50.944;4.034;2022-09-09T15:54:24;9.75;;;2.60;;
31130;SDS011;20292;50.944;4.034;2022-09-09T15:56:52;4.05;;;1.95;;
31130;SDS011;20292;50.944;4.034;2022-09-09T15:59:22;3.83;;;1.80;;
31130;SDS011;20292;50.944;4.034;2022-09-09T16:01:48;7.43;;;2.00;;
31130;SDS011;20292;50.944;4.034;2022-09-09T16:04:17;5.43;;;2.10;;
31130;SDS011;20292;50.944;4.034;2022-09-09T16:06:58;4.70;;;2.10;;
31130;SDS011;20292;50.944;4.034;2022-09-09T16:09:26;11.27;;;2.80;;
31130;SDS011;20292;50.944;4.034;2022-09-09T16:11:52;7.82;;;2.53;;
31130;SDS011;20292;50.944;4.034;2022-09-09T16:14:20;6.13;;;2.10;;
31130;SDS011;20292;50.944;4.034;2022-09-09T16:16:46;5.22;;;1.70;;
31130;SDS011;20292;50.944;4.034;2022-09-09T16:19:13;1.60;;;1.10;;
31130;SDS011;20292;50.944;4.034;2022-09-09T16:21:40;3.78;;;1.40;;
31130;SDS011;20292;50.944;4.034;2022-09-09T16:24:08;3.50;;;1.20;;
31130;SDS011;20292;50.944;4.034;2022-09-09T16:26:35;3.50;;;1.30;;
31130;SDS011;20292;50.944;4.034;2022-09-09T16:29:03;3.25;;;1.30;;
31130;SDS011;20292;50.944;4.034;2022-09-09T16:31:29;3.20;;;1.15;;
31130;SDS011;20292;50.944;4.034;2022-09-09T16:33:56;2.30;;;1.13;;
31130;SDS011;20292;50.944;4.034;2022-09-09T16:36:23;2.55;;;1.63;;
31130;SDS011;20292;50.944;4.034;2022-09-09T16:38:53;3.22;;;1.48;;
31130;SDS011;20292;50.944;4.034;2022-09-09T16:41:22;5.13;;;1.92;;
31130;SDS011;20292;50.944;4.034;2022-09-09T16:43:51;4.03;;;1.63;;
31130;SDS011;20292;50.944;4.034;2022-09-09T16:46:18;11.63;;;5.68;;
31130;SDS011;20292;50.944;4.034;2022-09-09T16:48:46;8.82;;;2.60;;
31130;SDS011;20292;50.944;4.034;2022-09-09T16:51:14;3.90;;;1.85;;
31130;SDS011;20292;50.944;4.034;2022-09-09T16:53:43;3.92;;;2.08;;
31130;SDS011;20292;50.944;4.034;2022-09-09T16:56:10;3.85;;;1.92;;
31130;SDS011;20292;50.944;4.034;2022-09-09T16:58:42;5.22;;;1.42;;
31130;SDS011;20292;50.944;4.034;2022-09-09T17:01:08;3.30;;;1.60;;
31130;SDS011;20292;50.944;4.034;2022-09-09T17:03:35;3.92;;;1.70;;
31130;SDS011;20292;50.944;4.034;2022-09-09T17:06:02;4.72;;;1.60;;
31130;SDS011;20292;50.944;4.034;2022-09-09T17:08:31;3.75;;;1.80;;
31130;SDS011;20292;50.944;4.034;2022-09-09T17:10:58;3.03;;;1.40;;
31130;SDS011;20292;50.944;4.034;2022-09-09T17:13:24;4.97;;;1.70;;
31130;SDS011;20292;50.944;4.034;2022-09-09T17:15:50;8.77;;;3.45;;
31130;SDS011;20292;50.944;4.034;2022-09-09T17:18:15;2.67;;;1.30;;
31130;SDS011;20292;50.944;4.034;2022-09-09T17:20:42;3.67;;;1.80;;
31130;SDS011;20292;50.944;4.034;2022-09-09T17:23:08;5.57;;;1.33;;
31130;SDS011;20292;50.944;4.034;2022-09-09T17:25:36;6.97;;;1.70;;
31130;SDS011;20292;50.944;4.034;2022-09-09T17:28:03;7.20;;;2.10;;
31130;SDS011;20292;50.944;4.034;2022-09-09T17:30:29;3.55;;;1.30;;
31130;SDS011;20292;50.944;4.034;2022-09-09T17:32:58;6.45;;;1.70;;
31130;SDS011;20292;50.944;4.034;2022-09-09T17:35:24;6.78;;;1.73;;
31130;SDS011;20292;50.944;4.034;2022-09-09T17:37:50;7.95;;;1.67;;